Time;durP1;ratioP1;P1;durP2;ratioP2;P2;SDS_P1;SDS_P2;PMS_P1;PMS_P2;Temp;Humidity;BMP_temperature;BMP_pressure;BME280_temperature;BME280_humidity;BME280_pressure;Samples;Min_cycle;Max_cycle;Signal;HPM_P1;HPM_P2
2022/05/06 00:01:25;;;;;;;;;10.50;9.50;;;;;13.12;64.01;101708.91;5036118;28;45670;-80
2022/05/06 00:03:50;;;;;;;;;12.50;11.00;;;;;13.09;63.77;101708.94;5034031;28;46063;-80
2022/05/06 00:06:16;;;;;;;;;17.00;16.25;;;;;13.11;64.14;101720.41;5040230;28;45340;-80
2022/05/06 00:08:41;;;;;;;;;11.25;9.00;;;;;13.07;64.01;101710.72;5041018;28;45454;-81
2022/05/06 00:11:07;;;;;;;;;8.00;8.00;;;;;13.09;63.78;101708.94;5035023;28;45386;-81
2022/05/06 00:13:32;;;;;;;;;16.50;9.75;;;;;13.08;64.21;101713.34;5036165;28;45490;-81
2022/05/06 00:15:59;;;;;;;;;12.50;9.50;;;;;13.08;64.13;101712.47;5035171;28;45434;-80
2022/05/06 00:18:24;;;;;;;;;13.00;11.00;;;;;13.06;64.17;101714.28;5035822;28;45416;-81
2022/05/06 00:20:49;;;;;;;;;9.75;8.75;;;;;13.02;63.98;101709.91;5034843;28;45573;-81
2022/05/06 00:23:15;;;;;;;;;9.00;9.00;;;;;13.03;64.11;101714.31;5037881;28;46178;-80
2022/05/06 00:25:40;;;;;;;;;14.00;13.00;;;;;13.01;64.19;101714.31;5035905;28;49115;-81
2022/05/06 00:28:06;;;;;;;;;18.50;15.00;;;;;12.98;64.64;101715.25;5035937;28;45419;-81
2022/05/06 00:30:31;;;;;;;;;13.00;12.00;;;;;12.96;64.46;101708.19;5035266;28;45394;-81
2022/05/06 00:32:56;;;;;;;;;12.00;10.00;;;;;12.94;64.63;101710.88;5037359;28;47375;-81
2022/05/06 00:35:23;;;;;;;;;12.00;12.00;;;;;12.94;64.89;101710.00;5018388;28;45441;-81
2022/05/06 00:37:49;;;;;;;;;10.00;8.50;;;;;12.92;64.72;101712.66;5017366;28;45462;-80
2022/05/06 00:40:14;;;;;;;;;9.75;5.00;;;;;12.87;64.75;101705.66;5015549;28;45948;-82
2022/05/06 00:42:39;;;;;;;;;12.75;12.75;;;;;12.89;64.51;101707.41;5015746;28;45356;-81
2022/05/06 00:45:05;;;;;;;;;12.00;9.75;;;;;12.90;64.78;101711.78;5031282;28;45388;-80
2022/05/06 00:47:33;;;;;;;;;11.00;11.00;;;;;12.87;64.52;101713.59;5035336;28;45440;-82
2022/05/06 00:50:00;;;;;;;;;11.50;9.50;;;;;12.84;65.08;101708.34;5035329;28;45557;-81
2022/05/06 00:52:26;;;;;;;;;13.00;10.50;;;;;12.83;65.13;101711.88;5035910;28;46193;-81
2022/05/06 00:54:52;;;;;;;;;15.00;14.00;;;;;12.81;65.25;101714.53;5024594;28;45303;-81
2022/05/06 00:57:17;;;;;;;;;10.50;9.50;;;;;12.72;64.86;101706.69;5017359;28;45372;-82
2022/05/06 01:02:26;;;;;;;;;10.50;10.50;;;;;12.74;65.45;101705.78;5015590;28;45346;-81
2022/05/06 01:04:52;;;;;;;;;15.50;12.75;;;;;12.72;65.69;101704.03;5016131;28;45278;-81
2022/05/06 01:07:21;;;;;;;;;17.00;12.75;;;;;12.72;65.64;101710.25;5019699;28;45294;-81
2022/05/06 01:09:49;;;;;;;;;13.00;13.00;;;;;12.73;65.42;101711.13;5020527;28;45669;-81
2022/05/06 01:12:15;;;;;;;;;6.75;6.75;;;;;12.70;65.68;101706.72;5018119;28;45561;-82
2022/05/06 01:14:40;;;;;;;;;12.00;10.00;;;;;12.64;65.53;101700.59;5028066;28;45391;-83
2022/05/06 01:17:08;;;;;;;;;12.75;12.00;;;;;12.65;66.01;101699.69;5036075;28;45288;-81
2022/05/06 01:19:35;;;;;;;;;9.75;9.75;;;;;12.62;65.82;101697.97;5035476;28;45574;-83
2022/05/06 01:22:01;;;;;;;;;16.00;10.00;;;;;12.59;65.84;101698.88;5035892;28;45557;-81
2022/05/06 01:24:26;;;;;;;;;18.00;11.00;;;;;12.57;65.81;101698.03;5034499;28;45496;-82
2022/05/06 01:26:55;;;;;;;;;15.00;13.00;;;;;12.57;66.14;101700.69;5035725;28;45355;-81
2022/05/06 01:29:22;;;;;;;;;13.25;11.75;;;;;12.51;66.43;101695.44;5035597;28;45499;-81
2022/05/06 01:31:50;;;;;;;;;10.50;8.75;;;;;12.50;66.21;101704.28;5022100;28;46084;-81
2022/05/06 01:34:17;;;;;;;;;16.50;15.25;;;;;12.52;66.67;101709.56;5014933;28;45407;-81
2022/05/06 01:36:46;;;;;;;;;11.50;8.00;;;;;12.49;66.90;101702.50;5017060;28;45522;-82
2022/05/06 01:39:15;;;;;;;;;8.75;8.75;;;;;12.47;66.45;101704.31;5021559;28;45301;-81
2022/05/06 01:41:45;;;;;;;;;18.00;11.00;;;;;12.46;66.34;101702.53;5030206;28;46009;-82
2022/05/06 01:44:14;;;;;;;;;13.25;12.00;;;;;12.49;66.36;101704.28;5037529;28;45381;-80
2022/05/06 01:46:40;;;;;;;;;15.50;10.00;;;;;12.46;66.63;101705.19;5038522;28;45304;-81
2022/05/06 01:49:06;;;;;;;;;15.00;12.50;;;;;12.47;66.99;101703.44;5039273;28;45407;-81
2022/05/06 01:51:33;;;;;;;;;20.75;16.50;;;;;12.36;67.40;101684.97;5029196;28;45617;-81
2022/05/06 01:53:59;;;;;;;;;16.50;13.00;;;;;12.37;67.27;101692.03;5018546;28;45534;-81
2022/05/06 01:56:25;;;;;;;;;10.75;7.50;;;;;12.35;67.69;101693.81;5018463;28;45427;-81
2022/05/06 01:58:51;;;;;;;;;15.50;15.00;;;;;12.35;67.66;101699.13;5018163;28;45352;-81
2022/05/06 02:01:17;;;;;;;;;14.75;12.75;;;;;12.36;67.43;101706.16;5017946;28;46125;-81
2022/05/06 02:06:27;;;;;;;;;16.25;13.00;;;;;12.34;67.68;101703.53;5020273;28;45430;-81
2022/05/06 02:08:52;;;;;;;;;14.00;9.25;;;;;12.32;67.16;101705.31;5022316;28;45634;-81
2022/05/06 02:11:18;;;;;;;;;21.25;17.75;;;;;12.30;67.46;101703.56;5041870;28;45517;-81
2022/05/06 02:13:44;;;;;;;;;17.50;11.50;;;;;12.31;67.65;101708.00;5059645;28;45458;-81
2022/05/06 02:16:10;;;;;;;;;13.50;13.00;;;;;12.22;67.94;101693.94;5059888;28;45341;-82
2022/05/06 02:18:35;;;;;;;;;19.75;14.00;;;;;12.23;67.82;101705.41;5059149;28;45538;-81
2022/05/06 02:21:01;;;;;;;;;15.25;11.50;;;;;12.21;67.63;101707.22;5048741;28;46924;-80
2022/05/06 02:23:27;;;;;;;;;9.50;7.00;;;;;12.22;67.96;101712.50;5018690;28;45463;-81
2022/05/06 02:25:53;;;;;;;;;11.50;10.00;;;;;12.21;67.71;101707.22;5017538;28;45494;-81
2022/05/06 02:28:19;;;;;;;;;17.00;12.75;;;;;12.15;67.76;101701.97;5017680;28;45482;-80
2022/05/06 02:33:28;;;;;;;;;12.00;12.00;;;;;12.11;68.35;101698.44;5019077;28;45371;-81
2022/05/06 02:35:54;;;;;;;;;15.00;11.75;;;;;12.11;68.11;101701.09;5023190;28;45213;-81
2022/05/06 02:38:21;;;;;;;;;11.00;11.00;;;;;12.10;68.38;101696.72;5024831;28;45522;-80
2022/05/06 02:40:47;;;;;;;;;11.50;9.25;;;;;12.09;68.49;101702.88;5025546;28;46313;-81
2022/05/06 02:43:12;;;;;;;;;16.75;12.25;;;;;11.96;68.51;101685.34;5058115;28;45292;-82
2022/05/06 02:45:38;;;;;;;;;15.00;9.50;;;;;12.04;68.57;101699.38;5058626;28;45371;-82
2022/05/06 02:48:05;;;;;;;;;16.75;15.75;;;;;11.99;68.69;101701.19;5057927;28;45355;-80
2022/05/06 02:50:31;;;;;;;;;16.75;11.75;;;;;11.99;68.84;101706.50;5029232;28;47379;-80
2022/05/06 02:52:56;;;;;;;;;19.50;18.00;;;;;11.97;68.48;101701.22;5017030;28;48178;-81
2022/05/06 02:55:24;;;;;;;;;18.25;13.50;;;;;11.92;68.76;101695.06;5016122;28;45535;-80
2022/05/06 02:57:51;;;;;;;;;16.00;13.00;;;;;11.92;68.88;101703.00;5018899;28;45443;-81
2022/05/06 03:00:17;;;;;;;;;14.00;12.50;;;;;11.90;68.95;101705.66;5029535;28;46153;-81
2022/05/06 03:02:42;;;;;;;;;17.00;12.00;;;;;11.88;68.99;101709.19;5038460;28;45391;-82
2022/05/06 03:05:09;;;;;;;;;12.50;11.00;;;;;11.85;69.23;101703.94;5037550;28;45598;-82
2022/05/06 03:07:36;;;;;;;;;16.75;15.50;;;;;11.84;69.27;101710.09;5040234;28;45460;-80
2022/05/06 03:10:03;;;;;;;;;12.00;10.00;;;;;11.81;69.00;101712.78;5040609;28;45441;-81
2022/05/06 03:12:31;;;;;;;;;13.50;12.25;;;;;11.78;69.24;101712.81;5021570;28;45387;-81
2022/05/06 03:14:58;;;;;;;;;13.00;10.00;;;;;11.74;69.41;101717.25;5018293;28;45383;-81
2022/05/06 03:17:23;;;;;;;;;24.00;23.00;;;;;11.65;69.34;101706.72;5033023;28;45556;-80
2022/05/06 03:19:49;;;;;;;;;16.25;11.50;;;;;11.64;69.43;101704.94;5017401;28;46358;-81
2022/05/06 03:22:17;;;;;;;;;22.00;15.00;;;;;11.63;69.79;101713.78;5017210;28;45448;-80
2022/05/06 03:24:44;;;;;;;;;14.75;11.50;;;;;11.59;69.81;101714.72;5017097;28;45402;-81
2022/05/06 03:29:57;;;;;;;;;13.00;12.25;;;;;11.50;70.29;101713.84;5041527;28;46008;-81
2022/05/06 03:32:23;;;;;;;;;24.75;19.25;;;;;11.48;70.43;101710.34;5054114;28;45486;-82
2022/05/06 03:34:52;;;;;;;;;15.25;12.50;;;;;11.50;70.12;101719.16;5054561;28;45563;-79
2022/05/06 03:37:17;;;;;;;;;14.50;12.50;;;;;11.47;70.32;101719.16;5057279;28;45509;-81
2022/05/06 03:39:43;;;;;;;;;14.00;12.00;;;;;11.44;70.44;101713.88;5053927;28;46006;-80
2022/05/06 03:42:09;;;;;;;;;14.75;14.50;;;;;11.46;70.35;101714.75;5040449;28;45382;-81
2022/05/06 03:44:34;;;;;;;;;15.25;14.50;;;;;11.40;70.33;101709.50;5034812;28;45483;-82
2022/05/06 03:46:59;;;;;;;;;11.50;11.00;;;;;11.39;70.64;101713.06;5033919;28;45580;-82
2022/05/06 03:49:25;;;;;;;;;12.75;12.75;;;;;11.40;70.47;101716.56;5049281;28;45483;-81
2022/05/06 03:51:52;;;;;;;;;21.00;12.75;;;;;11.38;70.62;101717.44;5033599;28;45579;-80
2022/05/06 03:54:17;;;;;;;;;14.25;14.25;;;;;11.37;70.55;101712.16;5034010;28;45344;-82
2022/05/06 03:56:42;;;;;;;;;20.75;20.25;;;;;11.33;71.02;101716.59;5034565;28;45415;-81
2022/05/06 03:59:09;;;;;;;;;21.50;16.50;;;;;11.31;71.00;101723.69;5036253;28;45555;-80
2022/05/06 04:01:35;;;;;;;;;17.00;14.25;;;;;11.28;71.22;101726.34;5035685;28;45517;-81
2022/05/06 04:04:01;;;;;;;;;15.25;13.25;;;;;11.27;71.14;101729.88;5017317;28;45470;-81
2022/05/06 04:06:27;;;;;;;;;15.25;12.00;;;;;11.27;71.10;101723.69;5030865;28;45438;-81
2022/05/06 04:08:52;;;;;;;;;17.50;13.00;;;;;11.26;71.53;101724.56;5018965;28;46340;-81
2022/05/06 04:11:20;;;;;;;;;22.75;15.75;;;;;11.23;71.39;101722.81;5031900;28;45468;-81
2022/05/06 04:13:45;;;;;;;;;18.75;14.00;;;;;11.11;71.58;101713.16;5020445;28;45500;-81
2022/05/06 04:16:11;;;;;;;;;17.50;14.00;;;;;11.11;71.68;101718.44;5020373;28;45503;-81
2022/05/06 04:18:36;;;;;;;;;16.00;12.75;;;;;11.18;71.99;101733.41;5016809;28;46764;-81
2022/05/06 04:23:46;;;;;;;;;16.00;15.00;;;;;11.18;71.50;101733.41;5016817;28;45361;-81
2022/05/06 04:26:11;;;;;;;;;15.50;12.25;;;;;11.18;71.63;101730.78;5015728;28;45345;-81
2022/05/06 04:28:37;;;;;;;;;16.00;12.50;;;;;11.19;71.55;101732.53;5016027;28;46378;-80
2022/05/06 04:31:03;;;;;;;;;16.25;15.00;;;;;11.16;71.64;101737.84;5029146;28;45420;-81
2022/05/06 04:33:30;;;;;;;;;14.75;12.75;;;;;11.20;71.33;101738.72;5036644;28;45418;-82
2022/05/06 04:35:59;;;;;;;;;16.50;15.25;;;;;11.24;71.42;101742.25;5035706;28;45627;-81
2022/05/06 04:38:25;;;;;;;;;17.00;16.75;;;;;11.26;71.39;101751.03;5036136;28;46212;-82
2022/05/06 04:40:54;;;;;;;;;11.75;10.00;;;;;11.32;71.04;101751.00;5041474;28;45418;-81
2022/05/06 04:43:20;;;;;;;;;20.75;17.50;;;;;11.35;71.10;101745.72;5037747;28;45357;-80
2022/05/06 04:45:47;;;;;;;;;16.25;15.75;;;;;11.37;70.88;101736.88;5035211;28;45466;-82
2022/05/06 04:48:13;;;;;;;;;23.50;12.00;;;;;11.58;70.41;101750.00;5035635;28;45465;-81
2022/05/06 04:50:40;;;;;;;;;15.75;13.00;;;;;11.68;70.15;101755.25;5025554;28;45517;-80
2022/05/06 04:53:07;;;;;;;;;21.00;14.50;;;;;11.85;68.97;101756.91;5015490;28;45498;-81
2022/05/06 04:55:40;;;;;;;;;18.50;18.25;;;;;12.00;68.99;101754.19;5014868;28;45340;-81
2022/05/06 04:58:06;;;;;;;;;15.25;11.75;;;;;12.22;68.46;101757.56;5016208;28;46279;-82
2022/05/06 05:00:33;;;;;;;;;16.50;16.50;;;;;12.38;67.62;101749.47;5016108;28;45561;-80
2022/05/06 05:02:59;;;;;;;;;24.75;18.00;;;;;12.67;66.89;101765.09;5016038;28;45502;-81
2022/05/06 05:05:25;;;;;;;;;24.50;16.25;;;;;12.91;66.00;101763.09;5016249;28;45529;-82
2022/05/06 05:07:51;;;;;;;;;22.25;18.50;;;;;13.19;65.19;101763.63;5017445;28;46529;-80
2022/05/06 05:10:16;;;;;;;;;20.00;15.25;;;;;13.44;64.57;101764.25;5020454;28;45804;-81
2022/05/06 05:12:42;;;;;;;;;11.50;11.50;;;;;13.75;63.91;101769.13;5030079;28;45527;-81
2022/05/06 05:15:08;;;;;;;;;26.25;17.25;;;;;14.09;62.37;101760.69;5036748;28;45613;-81
2022/05/06 05:17:34;;;;;;;;;12.25;10.00;;;;;14.33;61.58;101756.75;5016311;28;45426;-81
2022/05/06 05:19:59;;;;;;;;;13.00;12.00;;;;;14.68;60.21;101763.25;5019410;28;45391;-81
2022/05/06 05:22:25;;;;;;;;;15.25;15.25;;;;;14.99;59.62;101752.00;5035882;28;45553;-81
2022/05/06 05:24:53;;;;;;;;;18.25;16.50;;;;;15.35;58.41;101754.84;5035561;28;45620;-82
2022/05/06 05:27:18;;;;;;;;;20.00;19.50;;;;;15.74;57.20;101752.19;5035331;28;46324;-80
2022/05/06 05:29:43;;;;;;;;;21.50;16.00;;;;;16.11;55.89;101751.34;5033599;28;45421;-80
2022/05/06 05:32:10;;;;;;;;;11.75;8.50;;;;;16.51;55.04;101754.78;5037719;28;45678;-81
2022/05/06 05:34:36;;;;;;;;;20.75;14.50;;;;;16.87;54.22;101754.78;5035369;28;45535;-81
2022/05/06 05:37:01;;;;;;;;;17.50;17.50;;;;;17.27;53.51;101755.41;5038958;28;45590;-82
2022/05/06 05:39:27;;;;;;;;;16.00;15.00;;;;;17.79;51.55;101752.94;5039943;28;45489;-81
2022/05/06 05:41:53;;;;;;;;;17.25;11.50;;;;;18.23;50.70;101759.53;5023798;28;45460;-82
2022/05/06 05:49:47;;;;;;;;;22.50;20.25;;;;;19.68;46.87;101759.69;5014815;28;45428;-81
2022/05/06 05:52:12;;;;;;;;;18.50;18.50;;;;;20.00;45.85;101745.97;5035803;28;45506;-81
2022/05/06 05:54:38;;;;;;;;;21.50;19.50;;;;;20.47;45.16;101763.69;5036356;28;45470;-82
2022/05/06 05:57:04;;;;;;;;;18.50;17.50;;;;;20.81;43.99;101756.88;5034264;28;45485;-82
2022/05/06 05:59:30;;;;;;;;;25.75;22.00;;;;;21.09;43.72;101751.13;5049985;28;45471;-82
2022/05/06 06:01:59;;;;;;;;;69.75;59.00;;;;;21.56;42.49;101752.56;5015645;28;45594;-83
2022/05/06 06:04:24;;;;;;;;;99.00;80.67;;;;;21.83;41.58;101748.56;5015563;28;45511;-83
2022/05/06 06:06:49;;;;;;;;;108.67;97.33;;;;;22.18;41.29;101751.31;5015733;28;45394;-82
2022/05/06 06:09:15;;;;;;;;;111.75;100.00;;;;;22.46;40.18;101732.91;5014175;28;45356;-80
2022/05/06 06:11:40;;;;;;;;;111.00;97.67;;;;;22.71;40.11;101737.84;5033651;28;45342;-81
2022/05/06 06:14:06;;;;;;;;;109.00;99.00;;;;;23.08;39.31;101735.91;5038121;28;45301;-82
2022/05/06 06:16:31;;;;;;;;;109.33;98.33;;;;;23.40;38.94;101733.28;5034016;28;45473;-82
2022/05/06 06:18:58;;;;;;;;;109.50;100.50;;;;;23.81;38.19;101735.44;5035451;28;45450;-81
2022/05/06 06:21:25;;;;;;;;;107.75;95.75;;;;;24.18;37.11;101729.75;5021441;28;45566;-82
2022/05/06 06:23:50;;;;;;;;;115.00;106.75;;;;;24.30;36.02;101740.69;5012065;28;45565;-81
2022/05/06 06:26:16;;;;;;;;;112.75;107.25;;;;;24.54;36.53;101742.88;5011120;28;47288;-83
2022/05/06 06:28:41;;;;;;;;;107.33;95.33;;;;;24.80;36.11;101749.41;5016312;28;45413;-81
2022/05/06 06:31:06;;;;;;;;;108.33;100.33;;;;;25.20;35.21;101746.03;5028777;28;45813;-82
2022/05/06 06:33:37;;;;;;;;;104.00;89.67;;;;;25.53;34.44;101742.19;5036474;28;45566;-81
2022/05/06 06:36:03;;;;;;;;;107.33;94.67;;;;;25.89;33.94;101747.00;5035321;28;45488;-81
2022/05/06 06:38:29;;;;;;;;;108.50;99.00;;;;;26.19;33.74;101750.50;5016976;28;45475;-81
2022/05/06 06:40:54;;;;;;;;;110.00;103.67;;;;;26.48;33.15;101745.81;5020568;28;45395;-81
2022/05/06 06:43:20;;;;;;;;;108.25;99.75;;;;;26.50;33.04;101743.00;5021126;28;45399;-77
2022/05/06 06:45:46;;;;;;;;;111.50;106.75;;;;;26.58;32.56;101746.03;5017835;28;46587;-80
2022/05/06 06:48:11;;;;;;;;;111.25;102.75;;;;;26.57;32.86;101736.16;5016874;28;45423;-80
2022/05/06 06:50:39;;;;;;;;;103.00;89.67;;;;;26.86;32.21;101741.41;5020408;28;45480;-79
2022/05/06 06:53:04;;;;;;;;;99.33;83.67;;;;;27.18;31.75;101752.69;5037767;28;45299;-82
2022/05/06 06:55:30;;;;;;;;;109.50;103.25;;;;;27.61;31.57;101738.69;5037361;28;45385;-81
2022/05/06 06:57:55;;;;;;;;;110.00;103.75;;;;;27.98;30.40;101737.81;5037632;28;45268;-81
2022/05/06 07:00:20;;;;;;;;;112.75;104.50;;;;;28.15;30.59;101737.41;5035334;28;45277;-77
2022/05/06 07:02:46;;;;;;;;;91.33;75.33;;;;;28.11;30.26;101735.06;5016780;28;45430;-80
2022/05/06 07:05:11;;;;;;;;;99.00;85.33;;;;;28.22;30.64;101736.94;5016694;28;45692;-79
2022/05/06 07:11:52;;;;;;;;;109.00;96.33;;;;;28.70;29.22;101739.56;5022890;28;45391;-79
2022/05/06 07:13:28;;;;;;;;;108.40;101.40;;;;;28.80;29.74;101746.00;5018518;28;45641;-81
2022/05/06 07:15:53;;;;;;;;;110.75;103.00;;;;;28.86;29.19;101755.53;5016697;28;45373;-78
2022/05/06 07:18:19;;;;;;;;;103.50;94.50;;;;;28.94;28.89;101746.75;5016545;28;45515;-79
2022/05/06 07:20:44;;;;;;;;;102.33;90.67;;;;;29.02;28.99;101749.75;5017512;28;45449;-78
2022/05/06 07:23:10;;;;;;;;;21.00;17.50;;;;;28.95;28.91;101748.50;5045415;28;45497;-82
2022/05/06 07:25:36;;;;;;;;;111.75;105.25;;;;;29.24;28.53;101760.66;5044449;28;46467;-82
2022/05/06 07:28:02;;;;;;;;;110.67;106.00;;;;;29.20;28.40;101758.28;5046899;28;45315;-81
2022/05/06 07:30:27;;;;;;;;;110.00;107.75;;;;;29.30;28.45;101747.53;5034708;28;45789;-81
2022/05/06 07:32:52;;;;;;;;;92.75;77.25;;;;;29.21;28.34;101755.47;5031404;28;45533;-81
2022/05/06 07:35:18;;;;;;;;;108.75;101.75;;;;;29.29;28.98;101751.25;5031719;28;46130;-80
2022/05/06 07:37:43;;;;;;;;;100.00;89.33;;;;;29.23;28.16;101753.50;5041924;27;45559;-80
2022/05/06 07:40:10;;;;;;;;;101.50;90.25;;;;;29.40;28.61;101765.72;5049911;28;45496;-80
2022/05/06 07:42:37;;;;;;;;;75.67;62.67;;;;;29.30;28.34;101769.31;5048838;28;45615;-80
2022/05/06 07:45:02;;;;;;;;;105.00;93.50;;;;;29.46;27.82;101763.50;5057366;28;46111;-81
2022/05/06 07:47:28;;;;;;;;;110.33;105.00;;;;;29.64;28.41;101767.44;5045500;28;45461;-78
2022/05/06 07:49:53;;;;;;;;;93.00;77.00;;;;;29.66;27.48;101770.03;5046656;28;45608;-77
2022/05/06 07:52:18;;;;;;;;;108.00;98.75;;;;;29.84;27.57;101765.81;5040128;28;45332;-79
2022/05/06 07:54:44;;;;;;;;;107.00;99.00;;;;;30.01;27.78;101756.19;5045909;28;45446;-78
2022/05/06 07:57:09;;;;;;;;;108.00;94.50;;;;;30.25;27.13;101755.13;5040975;28;45480;-79
2022/05/06 07:59:35;;;;;;;;;106.33;92.67;;;;;30.07;27.45;101746.66;5039268;28;45538;-78
2022/05/06 08:04:48;;;;;;;;;106.40;91.40;;;;;30.32;26.62;101758.19;5045181;28;45928;-77
2022/05/06 08:07:14;;;;;;;;;106.80;98.80;;;;;30.53;27.15;101755.50;5035591;28;45718;-77
2022/05/06 08:09:40;;;;;;;;;105.25;98.25;;;;;30.48;26.76;101740.41;5035399;28;45398;-77
2022/05/06 08:12:06;;;;;;;;;104.67;96.33;;;;;30.62;26.44;101752.81;5050118;28;45564;-76
2022/05/06 08:14:32;;;;;;;;;105.50;99.50;;;;;30.71;27.08;101751.16;5038174;28;45627;-77
2022/05/06 08:16:58;;;;;;;;;100.25;89.75;;;;;30.82;26.52;101755.66;5044967;28;45517;-77
2022/05/06 08:19:24;;;;;;;;;102.67;94.33;;;;;30.93;26.62;101755.59;5035337;28;45426;-80
2022/05/06 08:21:50;;;;;;;;;108.33;101.33;;;;;30.90;26.37;101760.44;5042792;28;45431;-81
2022/05/06 08:24:16;;;;;;;;;104.80;98.00;;;;;30.93;26.62;101755.59;5043380;28;46697;-81
2022/05/06 08:26:41;;;;;;;;;107.00;100.50;;;;;31.00;26.08;101745.91;5035876;28;45461;-81
2022/05/06 08:29:07;;;;;;;;;108.00;101.67;;;;;31.03;25.96;101750.22;5038099;28;45455;-81
2022/05/06 08:31:37;;;;;;;;;106.20;100.40;;;;;31.12;25.85;101751.25;5040868;28;45383;-79
2022/05/06 08:34:03;;;;;;;;;109.00;107.00;;;;;30.55;26.34;101735.28;5039494;28;45472;-81
2022/05/06 08:36:29;;;;;;;;;107.25;102.25;;;;;30.48;26.89;101747.72;5031626;28;45514;-81
2022/05/06 08:38:54;;;;;;;;;105.75;101.25;;;;;30.51;25.99;101736.53;5039378;28;45429;-80
2022/05/06 08:41:20;;;;;;;;;107.67;101.67;;;;;30.72;26.58;101755.63;5054500;28;53983;-80
2022/05/06 08:43:45;;;;;;;;;101.75;94.00;;;;;31.12;26.09;101759.44;5050576;28;45960;-80
2022/05/06 08:51:39;;;;;;;;;103.00;96.75;;;;;31.31;26.29;101748.63;5032109;28;45426;-81
2022/05/06 08:54:05;;;;;;;;;105.80;98.80;;;;;31.29;25.62;101745.13;5045099;28;46056;-80
2022/05/06 08:56:31;;;;;;;;;109.00;103.00;;;;;31.39;26.63;101739.72;5052559;28;45460;-80
2022/05/06 08:58:59;;;;;;;;;106.25;96.25;;;;;31.58;26.73;101746.25;5050368;28;45571;-80
2022/05/06 09:01:25;;;;;;;;;108.60;102.20;;;;;31.75;25.53;101744.72;5041134;28;45306;-77
2022/05/06 09:03:51;;;;;;;;;103.25;95.00;;;;;31.32;25.47;101736.69;5045170;28;46987;-79
2022/05/06 09:06:40;;;;;;;;;105.40;99.60;;;;;30.80;25.51;101746.75;5040504;28;45473;-80
2022/05/06 09:09:05;;;;;;;;;102.80;94.00;;;;;29.82;26.70;101743.28;5013865;28;45587;-80
2022/05/06 09:16:39;;;;;;;;;105.33;96.00;;;;;29.96;26.92;101744.84;5016047;28;45418;-80
2022/05/06 09:17:24;;;;;;;;;106.00;93.33;;;;;30.24;26.22;101745.22;5019842;28;45534;-81
2022/05/06 09:19:50;;;;;;;;;94.67;78.00;;;;;30.39;26.36;101740.31;5027285;28;45432;-81
2022/05/06 09:22:16;;;;;;;;;42.67;42.00;;;;;30.37;25.29;101743.16;5021316;28;45456;-80
2022/05/06 09:24:43;;;;;;;;;105.67;95.33;;;;;30.23;26.15;101740.75;5010169;28;45488;-81
2022/05/06 09:27:14;;;;;;;;;105.00;96.00;;;;;30.28;26.05;101733.06;5027936;28;45443;-80
2022/05/06 09:29:43;;;;;;;;;76.00;62.67;;;;;30.53;26.33;101722.78;5026965;28;45485;-77
2022/05/06 09:32:16;;;;;;;;;6.50;6.50;;;;;30.51;26.10;101719.31;5023245;28;45397;-79
2022/05/06 09:34:42;;;;;;;;;5.50;4.25;;;;;30.47;26.79;101730.50;5026673;28;46066;-80
2022/05/06 09:37:08;;;;;;;;;75.33;63.00;;;;;30.58;26.49;101724.09;5018729;28;45502;-79
2022/05/06 09:39:38;;;;;;;;;8.00;5.00;;;;;30.86;26.06;101721.66;5006354;28;45503;-80
2022/05/06 09:42:04;;;;;;;;;49.75;44.75;;;;;31.11;25.89;101723.13;5025957;28;45503;-81
2022/05/06 09:44:32;;;;;;;;;35.50;35.50;;;;;31.10;25.63;101717.78;5025525;28;46261;-82
2022/05/06 09:47:12;;;;;;;;;2.25;2.25;;;;;30.91;25.05;101729.44;5040393;28;45550;-80
2022/05/06 09:49:40;;;;;;;;;97.50;85.75;;;;;30.60;25.48;101724.81;5041292;28;45477;-81
2022/05/06 09:52:13;;;;;;;;;105.00;91.00;;;;;30.22;25.99;101722.69;5049112;28;45619;-81
2022/05/06 09:54:44;;;;;;;;;105.00;91.00;;;;;30.22;25.65;101718.09;5041182;28;46036;-81
2022/05/06 09:57:15;;;;;;;;;98.33;86.67;;;;;30.66;26.06;101717.97;5045097;28;45453;-82
2022/05/06 09:59:41;;;;;;;;;90.00;73.00;;;;;30.83;25.25;101711.03;5046109;28;45497;-81
2022/05/06 10:02:08;;;;;;;;;104.00;89.75;;;;;31.08;25.01;101709.75;5038603;28;45330;-82
2022/05/06 10:04:35;;;;;;;;;87.67;73.33;;;;;30.97;24.58;101716.09;5036815;28;45516;-77
2022/05/06 10:07:01;;;;;;;;;64.33;55.00;;;;;30.94;24.85;101718.25;5036492;28;45474;-78
2022/05/06 10:09:29;;;;;;;;;99.67;85.00;;;;;31.00;24.78;101715.91;5045739;28;45525;-79
2022/05/06 10:12:00;;;;;;;;;91.67;75.33;;;;;30.78;24.70;101705.97;5048412;28;45601;-78
2022/05/06 10:14:26;;;;;;;;;8.25;8.25;;;;;30.60;25.15;101711.19;5051390;28;45527;-79
2022/05/06 10:16:51;;;;;;;;;7.50;4.50;;;;;30.45;25.59;101713.41;5046227;28;45459;-80
2022/05/06 10:19:27;;;;;;;;;67.50;57.00;;;;;30.73;24.87;101704.66;5050934;28;45438;-83
2022/05/06 10:21:53;;;;;;;;;76.33;61.67;;;;;30.68;25.24;101718.69;5043891;28;45435;-81
2022/05/06 10:24:20;;;;;;;;;34.67;34.00;;;;;30.47;25.03;101711.41;5045627;28;47368;-82
2022/05/06 10:26:46;;;;;;;;;100.00;88.25;;;;;30.57;24.84;101706.00;5046407;28;45609;-82
2022/05/06 10:32:26;;;;;;;;;43.00;41.67;;;;;30.29;25.54;101704.78;5037055;28;45628;-81
2022/05/06 10:34:55;;;;;;;;;82.67;68.33;;;;;30.30;24.98;101717.41;5046359;28;46134;-78
2022/05/06 10:37:22;;;;;;;;;100.00;89.25;;;;;30.30;25.38;101710.09;5041066;28;45454;-80
2022/05/06 10:39:48;;;;;;;;;104.67;96.00;;;;;30.39;25.10;101702.13;5032419;28;45437;-79
2022/05/06 10:42:16;;;;;;;;;107.00;100.50;;;;;30.32;25.23;101700.94;5042218;28;45486;-77
2022/05/06 10:44:48;;;;;;;;;105.75;90.75;;;;;30.32;25.52;101699.06;5047235;28;45569;-79
2022/05/06 10:47:13;;;;;;;;;0.00;0.00;;;;;30.41;25.39;101697.44;5043196;28;45342;-77
2022/05/06 10:49:38;;;;;;;;;50.75;47.50;;;;;30.39;25.38;101697.53;5040164;28;45353;-77
2022/05/06 10:52:26;;;;;;;;;13.25;12.00;;;;;30.40;25.52;101696.59;5040650;28;45688;-77
2022/05/06 10:55:14;;;;;;;;;45.75;41.25;;;;;30.17;25.68;101679.47;5044681;28;46320;-78
2022/05/06 10:57:56;;;;;;;;;98.50;84.75;;;;;29.81;25.68;101681.63;5015769;28;45486;-79
2022/05/06 11:00:23;;;;;;;;;79.33;66.00;;;;;29.94;26.36;101693.19;5018722;28;45689;-79
2022/05/06 11:02:50;;;;;;;;;105.25;98.50;;;;;30.10;24.63;101691.88;5022034;28;45564;-79
2022/05/06 11:05:17;;;;;;;;;107.20;99.80;;;;;29.98;25.62;101680.19;5021588;28;47183;-78
2022/05/06 11:07:44;;;;;;;;;101.50;91.75;;;;;30.18;24.90;101689.34;5033519;28;45430;-77
2022/05/06 11:10:11;;;;;;;;;106.50;100.50;;;;;30.05;25.45;101680.50;5026145;28;45479;-78
2022/05/06 11:12:42;;;;;;;;;105.75;101.25;;;;;29.96;25.22;101676.72;5023389;28;45734;-77
2022/05/06 11:15:15;;;;;;;;;109.25;105.00;;;;;30.03;25.99;101674.31;5023622;28;45655;-77
2022/05/06 11:17:45;;;;;;;;;104.33;98.33;;;;;29.86;25.41;101663.00;5022833;28;45478;-77
2022/05/06 11:20:34;;;;;;;;;105.50;98.75;;;;;30.13;25.39;101681.56;5013569;28;45628;-78
2022/05/06 11:23:00;;;;;;;;;106.50;102.00;;;;;30.34;25.03;101669.81;5017110;28;45425;-78
2022/05/06 11:26:00;;;;;;;;;104.20;97.40;;;;;30.42;25.49;101667.31;5029323;28;45441;-77
2022/05/06 11:28:25;;;;;;;;;103.20;94.00;;;;;30.54;24.31;101659.91;4924248;28;45452;-77
2022/05/06 11:30:53;;;;;;;;;105.50;93.50;;;;;30.62;24.91;101664.69;4927370;28;45510;-78
2022/05/06 11:33:31;;;;;;;;;102.50;87.50;;;;;30.93;24.43;101665.56;4920095;28;45591;-78
2022/05/06 11:36:03;;;;;;;;;105.20;91.80;;;;;30.32;24.79;101662.75;4947885;28;46142;-77
2022/05/06 11:38:32;;;;;;;;;106.75;98.75;;;;;29.99;24.83;101668.28;4941693;28;45538;-78
2022/05/06 11:41:11;;;;;;;;;102.25;86.75;;;;;29.76;24.96;101657.47;4947479;28;45476;-77
2022/05/06 11:43:38;;;;;;;;;92.00;78.00;;;;;30.04;25.48;101648.81;4947121;28;45637;-76